This is the latest recevied weather packets stored in our database for station/object WX6HNX-4. If no packets are shown the sender has not sent any weather packets the latest 10 day(s).
| Time | Temp. | Humidity | Pressure | Rain* | Wind** | Luminosity | Snow |
|---|---|---|---|---|---|---|---|
| 1777649370 | 22.22° C | 47% | 1005.7 hPa | 0 mm | - | - | - |
| 1777648171 | 21.11° C | 49% | 1005.7 hPa | 0 mm | - | - | - |
| 1777646370 | 20° C | 53% | 1005.7 hPa | 0 mm | - | - | - |
| 1777646070 | 19.44° C | 55% | 1005.7 hPa | 0 mm | - | - | - |
| 1777645770 | 19.44° C | 55% | 1005.7 hPa | 0 mm | - | - | - |
| 1777645470 | 18.89° C | 56% | 1005.7 hPa | 0 mm | - | - | - |
| 1777644270 | 17.22° C | 62% | 1005.6 hPa | 0 mm | - | - | - |
| 1777643835 | 16.67° C | 64% | 1005.6 hPa | 0 mm | - | - | - |
| 1777643535 | 16.11° C | 64% | 1005.6 hPa | 0 mm | - | - | - |
| 1777643235 | 16.11° C | 65% | 1005.5 hPa | 0 mm | - | - | - |
| 1777642935 | 15.56° C | 65% | 1005.5 hPa | 0 mm | - | - | - |
| 1777642634 | 16.11° C | 63% | 1005.5 hPa | 0 mm | - | - | - |
| 1777641735 | 15.56° C | 65% | 1005.4 hPa | 0 mm | - | - | - |
| 1777641135 | 15° C | 67% | 1005.3 hPa | 0 mm | - | - | - |
| 1777640835 | 15° C | 65% | 1005.3 hPa | 0 mm | - | - | - |
| 1777640235 | 15.56° C | 64% | 1005.2 hPa | 0 mm | - | - | - |
| 1777634846 | 14.44° C | 65% | 1004.9 hPa | 0 mm | - | - | - |
| 1777632445 | 15.56° C | 59% | 1004.7 hPa | 0 mm | - | - | - |
| 1777629205 | 17.22° C | 54% | 1004.4 hPa | 0 mm | - | - | - |
| 1777626974 | 16.67° C | 55% | 1004.7 hPa | 0 mm | - | - | - |
| 1777626674 | 16.67° C | 55% | 1004.8 hPa | 0 mm | - | - | - |
| 1777625920 | 16.67° C | 56% | 1004.7 hPa | 0 mm | - | - | - |
| 1777625620 | 16.67° C | 55% | 1004.7 hPa | 0 mm | - | - | - |
| 1777625020 | 16.67° C | 55% | 1004.8 hPa | 0 mm | - | - | - |
| 1777624420 | 17.22° C | 53% | 1004.9 hPa | 0 mm | - | - | - |
* Rain latest hour (hover to see other rain measurements)
** Current wind speed in m/s (hover to see current wind gust speed)